Time;durP1;ratioP1;P1;durP2;ratioP2;P2;SDS_P1;SDS_P2;PMS_P1;PMS_P2;Temp;Humidity;BMP_temperature;BMP_pressure;BME280_temperature;BME280_humidity;BME280_pressure;Samples;Min_cycle;Max_cycle;Signal;HPM_P1;HPM_P2
2022/03/14 00:01:50;;;;;;;18.23;10.07;;;8.80;62.20;;;;;;4841682;29;20140;-73
2022/03/14 00:04:17;;;;;;;16.98;9.68;;;9.20;62.70;;;;;;4841387;29;20054;-73
2022/03/14 00:06:48;;;;;;;15.23;9.48;;;9.80;63.20;;;;;;4840859;29;20129;-72
2022/03/14 00:09:14;;;;;;;16.38;9.23;;;8.70;62.90;;;;;;4841639;29;20054;-74
2022/03/14 00:11:40;;;;;;;17.83;10.35;;;8.70;63.10;;;;;;4841688;29;20125;-75
2022/03/14 00:14:08;;;;;;;16.17;9.48;;;9.20;63.50;;;;;;4824841;29;20406;-73
2022/03/14 00:16:41;;;;;;;15.35;9.82;;;8.70;63.50;;;;;;4841422;29;20054;-72
2022/03/14 00:19:07;;;;;;;16.73;9.50;;;8.70;63.80;;;;;;4841082;29;20635;-73
2022/03/14 00:21:38;;;;;;;17.85;10.18;;;9.80;64.60;;;;;;4841099;29;20506;-71
2022/03/14 00:24:06;;;;;;;17.83;9.82;;;9.50;64.40;;;;;;4844287;29;20053;-73
2022/03/14 00:26:33;;;;;;;16.45;10.07;;;8.70;64.20;;;;;;4844668;29;20046;-73
2022/03/14 00:28:58;;;;;;;16.38;10.38;;;9.90;65.10;;;;;;4844612;29;20509;-71
2022/03/14 00:31:24;;;;;;;17.85;10.40;;;8.70;64.90;;;;;;4844631;29;20132;-74
2022/03/14 00:33:50;;;;;;;18.08;10.18;;;8.70;65.00;;;;;;4844590;29;20118;-72
2022/03/14 00:36:15;;;;;;;17.70;11.10;;;8.70;65.10;;;;;;4844499;29;20099;-73
2022/03/14 00:38:41;;;;;;;18.15;10.48;;;8.80;65.60;;;;;;4844494;29;20517;-73
2022/03/14 00:41:08;;;;;;;17.35;10.68;;;9.70;66.20;;;;;;4844532;29;20041;-72
2022/03/14 00:43:35;;;;;;;18.13;11.05;;;9.30;66.40;;;;;;4827823;29;20058;-74
2022/03/14 00:46:01;;;;;;;18.45;11.18;;;8.70;66.60;;;;;;4844857;29;20052;-73
2022/03/14 00:48:27;;;;;;;17.98;10.65;;;9.00;67.10;;;;;;4844226;29;20042;-72
2022/03/14 00:50:54;;;;;;;18.58;10.73;;;9.40;67.60;;;;;;4844130;29;20050;-73
2022/03/14 00:53:20;;;;;;;18.30;10.60;;;9.90;68.20;;;;;;4844276;29;20046;-73
2022/03/14 00:55:46;;;;;;;16.27;9.88;;;9.40;68.70;;;;;;4844353;29;20120;-72
2022/03/14 00:58:12;;;;;;;17.10;10.32;;;8.80;68.60;;;;;;4844166;29;20149;-73
2022/03/14 01:00:38;;;;;;;17.88;10.20;;;9.10;69.30;;;;;;4843995;29;20110;-73
2022/03/14 01:03:04;;;;;;;17.13;10.35;;;9.90;70.40;;;;;;4843950;29;20054;-72
2022/03/14 01:05:30;;;;;;;17.08;10.65;;;8.70;70.40;;;;;;4844021;29;20118;-73
2022/03/14 01:07:56;;;;;;;17.15;9.45;;;8.60;70.50;;;;;;4844269;29;20453;-74
2022/03/14 01:10:23;;;;;;;21.40;10.25;;;9.20;71.80;;;;;;4843886;29;20050;-72
2022/03/14 01:12:50;;;;;;;19.05;10.40;;;8.40;71.90;;;;;;4843995;29;20057;-73
2022/03/14 01:15:15;;;;;;;18.05;10.63;;;8.30;72.80;;;;;;4843852;29;20462;-72
2022/03/14 01:17:41;;;;;;;21.55;10.00;;;8.20;73.60;;;;;;4827408;29;20081;-69
2022/03/14 01:20:08;;;;;;;19.02;10.13;;;8.60;74.60;;;;;;4812164;29;20062;-72
2022/03/14 01:22:35;;;;;;;18.58;10.13;;;8.00;75.00;;;;;;4843853;29;20050;-72
2022/03/14 01:25:04;;;;;;;17.95;10.63;;;7.90;75.40;;;;;;4843567;29;20045;-72
2022/03/14 01:27:30;;;;;;;16.92;10.40;;;8.30;76.40;;;;;;4843845;29;20050;-73
2022/03/14 01:29:55;;;;;;;18.48;9.98;;;7.90;76.60;;;;;;4827312;29;20128;-72
2022/03/14 01:32:21;;;;;;;19.85;9.27;;;8.40;78.00;;;;;;4843888;29;20050;-73
2022/03/14 01:34:47;;;;;;;18.20;10.50;;;8.60;78.70;;;;;;4842816;29;20513;-73
2022/03/14 01:37:13;;;;;;;16.95;9.45;;;8.40;78.80;;;;;;4843794;29;20050;-72
2022/03/14 01:39:38;;;;;;;16.60;9.48;;;8.00;79.40;;;;;;4843746;29;20054;-74
2022/03/14 01:42:04;;;;;;;15.93;8.85;;;8.70;80.00;;;;;;4843176;29;20038;-72
2022/03/14 01:44:30;;;;;;;17.42;9.82;;;8.00;79.80;;;;;;4843409;29;20452;-74
2022/03/14 01:46:57;;;;;;;16.13;9.50;;;8.10;80.30;;;;;;4843457;29;20041;-73
2022/03/14 01:49:23;;;;;;;18.13;9.93;;;8.10;80.60;;;;;;4843498;29;20578;-75
2022/03/14 01:51:52;;;;;;;16.75;9.50;;;8.10;80.70;;;;;;4843089;29;20124;-74
2022/03/14 01:54:19;;;;;;;16.98;9.75;;;8.20;81.00;;;;;;4843505;29;20049;-75
2022/03/14 01:56:46;;;;;;;16.70;9.57;;;8.70;81.30;;;;;;4842940;29;20054;-74
2022/03/14 01:59:13;;;;;;;14.93;8.95;;;8.70;81.60;;;;;;4842935;29;20240;-74
2022/03/14 02:01:39;;;;;;;15.88;9.23;;;8.80;81.60;;;;;;4843083;29;20498;-74
2022/03/14 02:04:05;;;;;;;17.70;9.10;;;8.40;81.70;;;;;;4842879;29;20129;-73
2022/03/14 02:06:32;;;;;;;16.20;8.43;;;9.00;82.30;;;;;;4841814;29;20479;-76
2022/03/14 02:08:58;;;;;;;16.05;9.48;;;8.50;82.10;;;;;;4843116;29;20406;-74
2022/03/14 02:11:24;;;;;;;15.93;9.10;;;8.80;82.30;;;;;;4842776;29;20054;-73
2022/03/14 02:13:49;;;;;;;17.52;10.02;;;8.50;82.40;;;;;;4842833;29;20085;-73
2022/03/14 02:16:15;;;;;;;19.13;10.20;;;8.60;82.60;;;;;;4842837;29;20096;-72
2022/03/14 02:18:40;;;;;;;20.23;10.70;;;9.10;83.40;;;;;;4842910;29;20466;-69
2022/03/14 02:21:08;;;;;;;19.25;11.38;;;9.10;83.60;;;;;;4842502;29;20399;-73
2022/03/14 02:23:34;;;;;;;21.60;10.50;;;8.40;83.70;;;;;;4842599;29;20089;-73
2022/03/14 02:26:00;;;;;;;19.33;10.50;;;8.40;84.30;;;;;;4842687;29;20454;-73
2022/03/14 02:28:27;;;;;;;17.52;9.55;;;8.50;84.50;;;;;;4842303;29;20080;-73
2022/03/14 02:30:53;;;;;;;18.70;10.52;;;8.30;84.70;;;;;;4826330;29;20053;-73
2022/03/14 02:33:20;;;;;;;16.20;9.65;;;9.00;84.80;;;;;;4842576;29;20042;-72
2022/03/14 02:35:46;;;;;;;16.63;9.55;;;8.80;84.80;;;;;;4842394;29;20411;-73
2022/03/14 02:38:16;;;;;;;16.90;9.38;;;8.30;85.00;;;;;;4842565;29;20050;-74
2022/03/14 02:40:47;;;;;;;16.58;9.20;;;8.30;85.10;;;;;;4842398;29;20062;-73
2022/03/14 02:43:17;;;;;;;17.13;9.90;;;8.40;85.60;;;;;;4842076;29;20406;-74
2022/03/14 02:45:45;;;;;;;18.17;9.18;;;8.30;85.80;;;;;;4841795;29;20050;-73
2022/03/14 02:48:12;;;;;;;17.50;9.73;;;8.30;85.80;;;;;;4842202;29;20504;-73
2022/03/14 02:50:41;;;;;;;18.30;9.32;;;8.40;86.00;;;;;;4842036;29;20134;-73
2022/03/14 02:53:07;;;;;;;16.92;8.95;;;8.40;86.10;;;;;;4842380;29;20057;-73
2022/03/14 02:55:33;;;;;;;17.55;9.57;;;9.00;86.80;;;;;;4842141;29;20451;-74
2022/03/14 02:57:59;;;;;;;15.68;9.07;;;8.40;86.40;;;;;;4842169;29;20046;-73
2022/03/14 03:00:25;;;;;;;16.48;9.10;;;8.50;86.80;;;;;;4841615;29;20073;-73
2022/03/14 03:02:51;;;;;;;15.75;8.40;;;8.50;87.00;;;;;;4842107;29;20495;-73
2022/03/14 03:05:17;;;;;;;14.98;8.48;;;8.50;87.10;;;;;;4841950;29;20100;-71
2022/03/14 03:07:43;;;;;;;14.90;9.38;;;9.00;87.60;;;;;;4842125;29;20046;-73
2022/03/14 03:10:09;;;;;;;16.08;9.27;;;8.50;87.50;;;;;;4842159;29;20045;-73
2022/03/14 03:12:37;;;;;;;19.02;8.80;;;8.40;87.60;;;;;;4841899;29;20539;-73
2022/03/14 03:15:04;;;;;;;15.70;9.27;;;8.40;88.00;;;;;;4841641;29;20050;-73
2022/03/14 03:17:30;;;;;;;15.07;8.55;;;8.40;88.10;;;;;;4842140;29;20390;-73
2022/03/14 03:19:55;;;;;;;14.80;8.68;;;8.40;88.10;;;;;;4855948;29;20050;-73
2022/03/14 03:22:21;;;;;;;14.20;8.52;;;9.20;89.20;;;;;;4842012;29;20126;-73
2022/03/14 03:24:46;;;;;;;14.77;8.65;;;8.50;89.00;;;;;;4842001;29;20054;-74
2022/03/14 03:27:12;;;;;;;15.15;8.20;;;8.50;89.60;;;;;;4841818;29;20042;-73
2022/03/14 03:29:38;;;;;;;15.70;8.13;;;8.50;90.00;;;;;;4841834;29;20049;-73
2022/03/14 03:32:04;;;;;;;15.52;8.88;;;8.50;90.20;;;;;;4841693;29;20038;-72
2022/03/14 03:34:29;;;;;;;15.85;8.18;;;8.60;90.70;;;;;;4841707;29;20042;-73
2022/03/14 03:36:55;;;;;;;14.65;8.27;;;8.60;90.70;;;;;;4841643;29;20064;-74
2022/03/14 03:39:20;;;;;;;13.43;7.63;;;8.80;90.90;;;;;;4842052;29;20490;-71
2022/03/14 03:41:46;;;;;;;16.27;8.07;;;9.40;91.10;;;;;;4841911;29;20046;-73
2022/03/14 03:44:12;;;;;;;14.48;7.68;;;8.70;91.20;;;;;;4841858;29;20081;-73
2022/03/14 03:46:37;;;;;;;13.88;7.68;;;8.80;91.20;;;;;;4841459;29;20050;-73
2022/03/14 03:49:03;;;;;;;13.98;7.47;;;9.00;91.60;;;;;;4841742;29;20054;-74
2022/03/14 03:51:29;;;;;;;13.90;7.30;;;8.80;91.80;;;;;;4841489;29;20072;-74
2022/03/14 03:53:55;;;;;;;13.27;7.43;;;8.80;91.80;;;;;;4841919;29;20117;-74
2022/03/14 03:56:20;;;;;;;12.82;7.43;;;8.90;91.90;;;;;;4841934;29;20441;-72
2022/03/14 03:58:47;;;;;;;12.60;7.22;;;8.90;92.10;;;;;;4844287;29;20132;-75
2022/03/14 04:01:22;;;;;;;13.77;8.00;;;8.90;92.30;;;;;;4844864;29;20497;-75
2022/03/14 04:03:50;;;;;;;12.40;7.20;;;8.90;92.70;;;;;;4844831;29;20064;-73
2022/03/14 04:06:19;;;;;;;14.25;7.55;;;8.90;92.70;;;;;;4844926;29;20141;-73
2022/03/14 04:08:46;;;;;;;13.00;7.30;;;9.20;92.70;;;;;;4842993;29;20053;-72
2022/03/14 04:11:13;;;;;;;13.43;7.15;;;8.80;92.90;;;;;;4842769;29;20046;-72
2022/03/14 04:13:38;;;;;;;13.80;7.50;;;8.80;93.10;;;;;;4843165;29;20081;-75
2022/03/14 04:16:04;;;;;;;15.05;8.18;;;8.80;93.40;;;;;;4843657;29;20410;-74
2022/03/14 04:18:30;;;;;;;14.95;8.32;;;8.80;93.50;;;;;;4842459;29;20054;-73
2022/03/14 04:20:57;;;;;;;20.10;9.13;;;9.00;93.70;;;;;;4843218;29;20057;-72
2022/03/14 04:23:23;;;;;;;17.00;9.30;;;9.50;94.00;;;;;;4843042;29;20052;-73
2022/03/14 04:25:49;;;;;;;17.58;9.75;;;8.60;93.70;;;;;;4843386;29;20054;-73
2022/03/14 04:28:15;;;;;;;16.17;8.82;;;8.60;93.70;;;;;;4842949;29;20049;-74
2022/03/14 04:30:41;;;;;;;15.57;8.82;;;8.50;93.90;;;;;;4842892;29;20050;-74
2022/03/14 04:33:08;;;;;;;15.35;8.98;;;8.60;94.20;;;;;;4842674;29;20495;-71
2022/03/14 04:35:38;;;;;;;16.17;8.48;;;8.50;94.80;;;;;;4844497;29;20426;-72
2022/03/14 04:38:04;;;;;;;13.80;7.90;;;8.50;95.80;;;;;;4844641;29;20114;-73
2022/03/14 04:40:32;;;;;;;12.27;7.03;;;9.30;95.60;;;;;;4844909;29;20057;-75
2022/03/14 04:43:01;;;;;;;13.77;8.23;;;8.50;96.00;;;;;;4828078;29;20054;-72
2022/03/14 04:45:27;;;;;;;13.55;7.13;;;8.60;96.20;;;;;;4844818;29;20411;-73
2022/03/14 04:47:53;;;;;;;13.57;7.22;;;8.60;96.60;;;;;;4844681;29;20054;-73
2022/03/14 04:50:19;;;;;;;14.13;7.30;;;9.10;97.30;;;;;;4827530;29;20061;-72
2022/03/14 04:52:45;;;;;;;13.02;7.60;;;8.60;97.50;;;;;;4844634;29;20050;-71
2022/03/14 04:55:11;;;;;;;13.80;7.47;;;8.60;97.90;;;;;;4844542;29;20054;-74
2022/03/14 04:57:36;;;;;;;14.63;8.55;;;9.10;98.10;;;;;;4844440;29;20117;-72
2022/03/14 05:00:08;;;;;;;13.43;7.07;;;9.10;98.40;;;;;;4843956;29;20057;-70
2022/03/14 05:02:34;;;;;;;13.50;7.25;;;8.50;98.40;;;;;;4842318;29;20141;-73
2022/03/14 05:05:00;;;;;;;15.02;7.00;;;8.50;98.80;;;;;;4843875;29;20050;-72
2022/03/14 05:07:27;;;;;;;13.95;6.90;;;8.50;99.20;;;;;;4828076;29;20046;-73
2022/03/14 05:09:52;;;;;;;12.40;7.35;;;8.50;99.90;;;;;;4827007;29;20069;-72
2022/03/14 05:12:19;;;;;;;13.15;6.85;;;8.40;99.90;;;;;;4844298;29;20046;-73
2022/03/14 05:14:44;;;;;;;12.70;6.85;;;8.40;99.90;;;;;;4844057;29;20056;-73
2022/03/14 05:17:10;;;;;;;11.60;6.32;;;8.40;99.90;;;;;;4827546;29;20058;-74
2022/03/14 05:19:36;;;;;;;11.95;6.78;;;8.30;99.90;;;;;;4842310;29;20061;-75
2022/03/14 05:22:02;;;;;;;14.10;7.85;;;8.30;99.90;;;;;;4843901;29;20046;-72
2022/03/14 05:24:28;;;;;;;13.02;7.43;;;8.30;99.90;;;;;;4844054;29;20412;-72
2022/03/14 05:26:55;;;;;;;13.65;7.30;;;8.30;99.90;;;;;;4844223;29;20046;-72
2022/03/14 05:29:21;;;;;;;12.18;6.40;;;8.30;99.90;;;;;;4843937;29;20046;-73
2022/03/14 05:31:46;;;;;;;12.75;6.80;;;8.20;99.90;;;;;;4843936;29;20132;-73
2022/03/14 05:34:12;;;;;;;12.90;5.97;;;8.20;99.90;;;;;;4843959;29;20529;-71
2022/03/14 05:36:40;;;;;;;13.48;6.55;;;8.20;99.90;;;;;;4843609;29;20508;-73
2022/03/14 05:39:07;;;;;;;13.05;6.30;;;8.20;99.90;;;;;;4843904;29;20153;-72
2022/03/14 05:41:32;;;;;;;11.98;5.93;;;8.10;99.90;;;;;;4843904;29;20102;-71
2022/03/14 05:43:58;;;;;;;11.38;6.43;;;8.10;99.90;;;;;;4843564;29;20089;-72
2022/03/14 05:46:24;;;;;;;11.00;5.70;;;8.10;99.90;;;;;;4843748;29;20050;-72
2022/03/14 05:48:50;;;;;;;11.93;5.80;;;8.10;99.90;;;;;;4842241;29;20054;-72
2022/03/14 05:51:15;;;;;;;12.88;6.35;;;8.10;99.90;;;;;;4826571;29;20102;-71
2022/03/14 05:53:41;;;;;;;12.85;6.90;;;8.10;99.90;;;;;;4843202;29;20049;-70
2022/03/14 05:56:07;;;;;;;12.77;6.72;;;8.20;99.90;;;;;;4843374;29;20083;-74
2022/03/14 05:58:33;;;;;;;11.45;6.07;;;8.00;99.90;;;;;;4826643;29;20081;-71
2022/03/14 06:00:59;;;;;;;13.55;6.65;;;8.00;99.90;;;;;;4842986;29;20498;-72
2022/03/14 06:03:24;;;;;;;13.23;6.82;;;8.00;99.90;;;;;;4843435;29;20054;-73
2022/03/14 06:05:50;;;;;;;14.48;6.22;;;8.00;99.90;;;;;;4843060;29;20136;-72
2022/03/14 06:08:16;;;;;;;15.38;6.47;;;8.60;99.90;;;;;;4842929;29;20045;-72
2022/03/14 06:10:45;;;;;;;13.65;6.60;;;8.00;99.90;;;;;;4825884;29;20567;-71
2022/03/14 06:13:15;;;;;;;13.02;6.38;;;8.30;99.90;;;;;;4826639;29;20062;-71
2022/03/14 06:15:41;;;;;;;12.80;6.40;;;8.00;99.90;;;;;;4843254;29;20053;-71
2022/03/14 06:18:07;;;;;;;12.80;6.30;;;8.20;99.90;;;;;;4826513;29;20085;-71
2022/03/14 06:20:33;;;;;;;12.57;6.47;;;8.00;99.90;;;;;;4826297;29;20132;-70
2022/03/14 06:22:58;;;;;;;12.23;6.07;;;8.00;99.90;;;;;;4826048;29;20046;-71
2022/03/14 06:25:24;;;;;;;11.70;5.78;;;8.30;99.90;;;;;;4842570;29;20086;-71
2022/03/14 06:27:50;;;;;;;12.13;6.18;;;8.00;99.90;;;;;;4842455;29;20049;-67
2022/03/14 06:30:16;;;;;;;11.52;5.72;;;8.00;99.90;;;;;;4842593;29;20046;-70
2022/03/14 06:32:43;;;;;;;12.20;5.85;;;8.40;99.90;;;;;;4842615;29;20050;-73
2022/03/14 06:35:12;;;;;;;11.85;5.38;;;8.60;99.90;;;;;;4842768;29;20053;-71
2022/03/14 06:37:38;;;;;;;12.40;5.70;;;8.10;99.90;;;;;;4826618;29;20510;-71
2022/03/14 06:40:05;;;;;;;11.70;5.53;;;8.80;99.90;;;;;;4842192;29;20052;-74
2022/03/14 06:42:31;;;;;;;10.00;3.85;;;8.10;99.90;;;;;;4826406;29;20554;-72
2022/03/14 06:45:02;;;;;;;13.07;3.65;;;8.10;99.90;;;;;;4826262;29;20132;-69
2022/03/14 06:47:28;;;;;;;12.73;4.87;;;8.10;99.90;;;;;;4826389;29;20453;-73
2022/03/14 06:49:53;;;;;;;10.93;3.92;;;8.10;99.90;;;;;;4842636;29;20054;-72
2022/03/14 06:52:20;;;;;;;10.90;4.57;;;8.00;99.90;;;;;;4825717;29;20057;-73
2022/03/14 06:54:46;;;;;;;12.23;5.90;;;8.90;99.90;;;;;;4842158;29;20079;-71
2022/03/14 06:57:11;;;;;;;13.32;6.72;;;8.00;99.90;;;;;;4842472;29;20041;-72
2022/03/14 06:59:37;;;;;;;12.85;5.97;;;8.00;99.90;;;;;;4825860;29;20499;-71
2022/03/14 07:02:04;;;;;;;12.80;6.35;;;8.00;99.90;;;;;;4842421;29;20093;-73
2022/03/14 07:04:30;;;;;;;12.98;6.50;;;8.00;99.90;;;;;;4842239;29;20049;-73
2022/03/14 07:06:56;;;;;;;12.13;5.85;;;8.00;99.90;;;;;;4842353;29;20046;-75
2022/03/14 07:09:22;;;;;;;12.15;5.90;;;8.30;99.90;;;;;;4842148;29;20049;-72
2022/03/14 07:11:54;;;;;;;12.38;6.00;;;8.00;99.90;;;;;;4842179;29;20046;-75
2022/03/14 07:14:21;;;;;;;14.38;6.32;;;8.50;99.90;;;;;;4842356;29;20375;-73
2022/03/14 07:16:50;;;;;;;13.20;5.60;;;8.00;99.90;;;;;;4842353;29;20054;-72
2022/03/14 07:19:16;;;;;;;12.18;5.20;;;7.90;99.90;;;;;;4842260;29;20038;-70
2022/03/14 07:21:42;;;;;;;13.80;6.40;;;8.50;99.90;;;;;;4842108;29;20092;-71
2022/03/14 07:24:08;;;;;;;13.80;6.50;;;7.90;99.90;;;;;;4842200;29;20073;-70
2022/03/14 07:26:34;;;;;;;11.25;5.88;;;8.00;99.90;;;;;;4841504;29;20057;-69
2022/03/14 07:29:01;;;;;;;13.55;6.57;;;8.00;99.90;;;;;;4842161;29;20050;-71
2022/03/14 07:31:26;;;;;;;12.60;6.65;;;8.00;99.90;;;;;;4841879;29;20086;-72
2022/03/14 07:33:52;;;;;;;12.75;6.25;;;8.00;99.90;;;;;;4847581;29;20108;-72
2022/03/14 07:36:18;;;;;;;13.02;6.55;;;8.00;99.90;;;;;;4828994;29;20138;-76
2022/03/14 07:38:44;;;;;;;12.80;6.28;;;8.00;99.90;;;;;;4846266;29;20057;-76
2022/03/14 07:41:10;;;;;;;12.85;6.40;;;8.50;99.90;;;;;;4846299;29;20136;-78
2022/03/14 07:43:37;;;;;;;13.48;6.68;;;8.30;99.90;;;;;;4845988;29;20467;-78
2022/03/14 07:46:03;;;;;;;13.20;7.07;;;8.00;99.90;;;;;;4846709;29;20129;-79
2022/03/14 07:48:29;;;;;;;13.55;7.38;;;8.00;99.90;;;;;;4846143;29;20084;-72
2022/03/14 07:50:55;;;;;;;13.15;7.30;;;8.50;99.90;;;;;;4846301;29;20081;-71
2022/03/14 07:53:21;;;;;;;14.52;7.13;;;8.00;99.90;;;;;;4829587;29;20086;-76
2022/03/14 07:55:46;;;;;;;15.13;7.68;;;8.00;99.90;;;;;;4846342;29;20096;-75
2022/03/14 07:58:12;;;;;;;14.40;7.25;;;8.00;99.90;;;;;;4845609;29;20070;-78
2022/03/14 08:00:38;;;;;;;15.45;8.55;;;8.00;99.90;;;;;;4846094;29;20122;-79
2022/03/14 08:03:04;;;;;;;15.50;7.32;;;8.00;99.90;;;;;;4845820;29;20064;-76
2022/03/14 08:05:30;;;;;;;15.85;8.02;;;8.00;99.90;;;;;;4846153;29;20096;-80
2022/03/14 08:07:56;;;;;;;15.98;7.70;;;8.00;99.90;;;;;;4846363;29;20102;-77
2022/03/14 08:10:22;;;;;;;14.50;8.13;;;8.00;99.90;;;;;;4845850;29;20042;-78
2022/03/14 08:12:50;;;;;;;14.13;7.72;;;8.00;99.90;;;;;;4845584;29;20563;-76
2022/03/14 08:15:20;;;;;;;14.75;8.30;;;8.00;99.90;;;;;;4845976;29;20053;-77
2022/03/14 08:17:46;;;;;;;14.63;8.25;;;8.00;99.90;;;;;;4845707;29;20057;-79
2022/03/14 08:20:12;;;;;;;15.55;7.97;;;8.00;99.90;;;;;;4844279;29;20050;-70
2022/03/14 08:22:38;;;;;;;15.02;7.50;;;8.00;99.90;;;;;;4846128;29;20417;-71
2022/03/14 08:25:05;;;;;;;14.65;7.35;;;8.30;99.90;;;;;;4829477;29;20456;-71
2022/03/14 08:27:30;;;;;;;13.52;7.65;;;8.10;99.90;;;;;;4845866;29;20052;-71
2022/03/14 08:29:56;;;;;;;14.40;7.28;;;8.10;99.90;;;;;;4845537;29;20491;-71
2022/03/14 08:32:24;;;;;;;14.23;7.68;;;8.10;99.90;;;;;;4845404;29;20057;-69
2022/03/14 08:34:52;;;;;;;14.93;7.97;;;8.10;99.90;;;;;;4845610;29;20512;-70
2022/03/14 08:37:18;;;;;;;15.82;7.78;;;8.10;99.90;;;;;;4845726;29;20123;-70
2022/03/14 08:39:44;;;;;;;15.10;8.38;;;8.10;99.90;;;;;;4845801;29;20105;-67
2022/03/14 08:42:09;;;;;;;15.40;8.30;;;8.10;99.90;;;;;;4845448;29;20054;-71
2022/03/14 08:44:35;;;;;;;14.32;7.93;;;8.20;99.90;;;;;;4826698;29;20120;-79
2022/03/14 08:47:00;;;;;;;16.48;8.63;;;8.20;99.90;;;;;;4842948;29;20049;-81
2022/03/14 08:49:26;;;;;;;17.33;8.70;;;8.60;99.90;;;;;;4840875;29;20114;-81
2022/03/14 08:51:52;;;;;;;16.02;8.95;;;8.20;99.90;;;;;;4842884;29;20053;-81
2022/03/14 08:54:17;;;;;;;15.57;8.60;;;8.20;99.90;;;;;;4825726;29;20451;-79
2022/03/14 08:56:43;;;;;;;15.40;8.18;;;8.30;99.90;;;;;;4826211;29;20114;-79
2022/03/14 08:59:12;;;;;;;14.25;8.55;;;8.30;99.90;;;;;;4824980;29;20054;-79
2022/03/14 09:01:38;;;;;;;15.48;8.68;;;8.30;99.90;;;;;;4842616;29;20072;-78
2022/03/14 09:04:05;;;;;;;14.75;8.60;;;8.40;99.90;;;;;;4842128;29;20081;-79
2022/03/14 09:06:35;;;;;;;15.05;8.50;;;8.30;99.90;;;;;;4841864;29;20494;-81
2022/03/14 09:09:01;;;;;;;16.13;8.75;;;8.40;99.90;;;;;;4843121;29;20049;-82
2022/03/14 09:11:27;;;;;;;15.63;8.57;;;8.40;99.90;;;;;;4826203;29;20065;-82
2022/03/14 09:13:52;;;;;;;15.60;9.20;;;8.40;99.90;;;;;;4842215;29;20053;-77
2022/03/14 09:16:19;;;;;;;16.25;9.32;;;8.40;99.90;;;;;;4840420;29;20485;-79
2022/03/14 09:18:45;;;;;;;15.23;8.80;;;8.50;99.90;;;;;;4817510;29;20161;-78
2022/03/14 09:21:12;;;;;;;17.10;9.45;;;8.50;99.90;;;;;;4800075;29;20058;-74
2022/03/14 09:23:39;;;;;;;15.93;9.32;;;8.50;99.90;;;;;;4817087;29;20053;-78
2022/03/14 09:26:04;;;;;;;17.27;9.63;;;8.50;99.90;;;;;;4813442;29;20098;-75
2022/03/14 09:28:30;;;;;;;16.25;9.80;;;8.60;99.90;;;;;;4837048;29;20447;-76
2022/03/14 09:30:56;;;;;;;18.45;9.27;;;8.80;99.90;;;;;;4837623;29;20061;-76
2022/03/14 09:33:22;;;;;;;16.45;9.18;;;8.70;99.90;;;;;;4839750;29;20476;-78
2022/03/14 09:35:48;;;;;;;12.90;7.55;;;8.70;99.90;;;;;;4823635;29;20065;-74
2022/03/14 09:38:15;;;;;;;14.85;8.27;;;8.70;99.90;;;;;;4839942;29;20517;-79
2022/03/14 09:40:46;;;;;;;16.42;9.20;;;8.70;99.90;;;;;;4822151;29;20069;-73
2022/03/14 09:43:15;;;;;;;18.52;9.65;;;8.70;99.90;;;;;;4838522;29;20053;-77
2022/03/14 09:45:48;;;;;;;17.20;9.55;;;8.80;99.90;;;;;;4834274;29;20446;-73
2022/03/14 09:48:15;;;;;;;16.38;9.57;;;8.80;99.90;;;;;;4835397;29;20053;-79
2022/03/14 09:50:46;;;;;;;15.85;9.13;;;8.80;99.90;;;;;;4838644;29;20085;-78
2022/03/14 09:53:14;;;;;;;16.45;9.63;;;8.80;99.90;;;;;;4823480;29;20080;-81
2022/03/14 09:55:46;;;;;;;18.95;10.50;;;8.80;99.90;;;;;;4838615;29;20046;-70
2022/03/14 09:58:14;;;;;;;17.70;10.15;;;8.90;99.90;;;;;;4840460;29;20046;-68
2022/03/14 10:00:40;;;;;;;15.73;8.98;;;9.20;99.90;;;;;;4838293;29;20053;-69
2022/03/14 10:03:06;;;;;;;15.88;9.38;;;8.90;99.90;;;;;;4839498;29;20585;-70
2022/03/14 10:05:32;;;;;;;17.45;9.70;;;8.90;99.90;;;;;;4837497;29;20129;-74
2022/03/14 10:07:58;;;;;;;18.35;9.45;;;9.20;99.90;;;;;;4830142;29;20058;-79
2022/03/14 10:10:24;;;;;;;16.48;9.40;;;8.90;99.90;;;;;;4819419;29;20136;-77
2022/03/14 10:12:53;;;;;;;16.60;9.88;;;9.00;99.90;;;;;;4820715;29;20528;-79
2022/03/14 10:15:20;;;;;;;16.85;9.32;;;9.00;99.90;;;;;;4839024;29;20062;-79
2022/03/14 10:17:46;;;;;;;15.98;9.25;;;9.30;99.90;;;;;;4839134;29;20061;-78
2022/03/14 10:20:15;;;;;;;18.88;10.05;;;9.10;99.90;;;;;;4839825;29;20062;-76
2022/03/14 10:22:41;;;;;;;16.23;9.63;;;9.10;99.90;;;;;;4838190;29;20054;-74
2022/03/14 10:25:13;;;;;;;16.50;9.55;;;9.20;99.90;;;;;;4842224;29;20050;-79
2022/03/14 10:27:42;;;;;;;15.50;8.68;;;9.40;99.90;;;;;;4826113;29;20414;-74
2022/03/14 10:30:27;;;;;;;16.13;8.57;;;9.20;99.90;;;;;;4839603;29;20058;-76
2022/03/14 10:33:08;;;;;;;15.38;9.07;;;9.20;99.90;;;;;;4837369;29;20078;-77
2022/03/14 10:35:38;;;;;;;16.67;9.45;;;9.20;99.90;;;;;;4837840;29;20073;-76
2022/03/14 10:38:06;;;;;;;16.13;9.25;;;9.30;99.90;;;;;;4839082;29;20565;-74
2022/03/14 10:40:33;;;;;;;15.35;8.88;;;9.30;99.90;;;;;;4838336;29;20463;-76
2022/03/14 10:43:00;;;;;;;14.80;8.25;;;9.30;99.90;;;;;;4837795;29;20072;-75
2022/03/14 10:45:27;;;;;;;15.88;8.98;;;9.90;99.90;;;;;;4838997;29;20061;-81
2022/03/14 10:47:57;;;;;;;14.95;8.52;;;9.30;99.90;;;;;;4806840;29;20457;-82
2022/03/14 10:50:30;;;;;;;15.50;8.52;;;9.50;99.90;;;;;;4823175;29;20113;-80
2022/03/14 10:53:21;;;;;;;14.18;8.15;;;9.30;99.90;;;;;;4830684;29;20138;-78
2022/03/14 10:55:49;;;;;;;15.18;8.75;;;9.30;99.90;;;;;;4817337;29;20054;-81
2022/03/14 10:58:25;;;;;;;16.73;8.88;;;9.20;99.90;;;;;;4831628;29;20046;-83
2022/03/14 11:00:52;;;;;;;18.05;9.82;;;9.20;99.90;;;;;;4817455;29;20065;-75
2022/03/14 11:03:25;;;;;;;18.33;9.45;;;9.40;99.90;;;;;;4832763;29;20412;-74
2022/03/14 11:05:52;;;;;;;18.88;9.20;;;9.20;99.90;;;;;;4833954;29;20056;-77
2022/03/14 11:08:30;;;;;;;16.10;8.50;;;9.10;99.90;;;;;;4828393;29;20079;-76
2022/03/14 11:10:57;;;;;;;14.05;7.28;;;9.10;99.90;;;;;;4833866;29;20122;-73
2022/03/14 11:13:24;;;;;;;13.50;5.80;;;9.00;99.90;;;;;;4837536;29;20114;-80
2022/03/14 11:15:50;;;;;;;15.88;5.05;;;9.00;99.90;;;;;;4837818;29;20131;-72
2022/03/14 11:18:19;;;;;;;14.32;4.20;;;9.00;99.90;;;;;;4838214;29;20054;-76
2022/03/14 11:20:46;;;;;;;11.93;4.50;;;9.00;99.90;;;;;;4836843;29;20413;-75
2022/03/14 11:23:14;;;;;;;14.32;4.32;;;9.00;99.90;;;;;;4837927;29;20522;-74
2022/03/14 11:25:44;;;;;;;11.57;4.10;;;9.10;99.90;;;;;;4838424;29;20089;-73
2022/03/14 11:28:18;;;;;;;13.40;4.40;;;9.10;99.90;;;;;;4834695;29;20046;-78
2022/03/14 11:30:51;;;;;;;15.30;4.75;;;9.10;99.90;;;;;;4819468;29;20061;-75
2022/03/14 11:33:17;;;;;;;13.88;4.70;;;9.20;99.90;;;;;;4817853;29;20114;-74
2022/03/14 11:35:43;;;;;;;11.70;4.30;;;9.20;99.90;;;;;;4837756;29;20061;-74
2022/03/14 11:38:11;;;;;;;13.15;4.88;;;9.20;99.90;;;;;;4837648;29;20052;-82
2022/03/14 11:40:37;;;;;;;12.60;5.00;;;9.40;99.90;;;;;;4834438;29;20045;-74
2022/03/14 11:43:03;;;;;;;14.40;5.20;;;9.30;99.90;;;;;;4834115;29;20499;-73
2022/03/14 11:45:30;;;;;;;15.85;5.35;;;9.20;99.90;;;;;;4836236;29;20050;-73
2022/03/14 11:47:56;;;;;;;13.82;5.47;;;9.20;99.90;;;;;;4837433;29;20125;-75
2022/03/14 11:50:22;;;;;;;16.38;6.80;;;9.20;99.90;;;;;;4821998;29;20091;-71
2022/03/14 11:52:55;;;;;;;16.95;6.05;;;9.10;99.90;;;;;;4835252;29;20053;-69
2022/03/14 11:55:24;;;;;;;16.58;7.00;;;9.10;99.90;;;;;;4837812;29;20456;-74
2022/03/14 11:57:50;;;;;;;17.60;8.15;;;9.10;99.90;;;;;;4837744;29;20061;-71
2022/03/14 12:00:22;;;;;;;18.75;7.78;;;9.20;99.90;;;;;;4837492;29;20062;-70
2022/03/14 12:02:49;;;;;;;14.83;6.17;;;9.20;99.90;;;;;;4836713;29;20058;-70
2022/03/14 12:05:20;;;;;;;15.52;7.20;;;9.20;99.90;;;;;;4837846;29;20124;-70
2022/03/14 12:07:46;;;;;;;17.42;7.88;;;9.30;99.90;;;;;;4836927;29;20061;-71
2022/03/14 12:10:29;;;;;;;19.67;7.47;;;9.30;99.90;;;;;;4839607;29;20042;-70
2022/03/14 12:12:56;;;;;;;18.63;7.38;;;9.30;99.90;;;;;;4821545;29;20050;-68
2022/03/14 12:15:41;;;;;;;18.27;8.23;;;9.40;99.90;;;;;;4836420;29;20527;-72
2022/03/14 12:18:25;;;;;;;17.08;7.07;;;9.50;99.90;;;;;;4804202;29;20054;-79
2022/03/14 12:20:59;;;;;;;20.25;7.75;;;9.60;99.90;;;;;;4840869;29;20130;-79
2022/03/14 12:23:33;;;;;;;19.27;8.18;;;9.60;99.90;;;;;;4840038;29;20502;-77
2022/03/14 12:26:22;;;;;;;19.40;7.40;;;9.60;99.90;;;;;;4838876;29;20119;-75
2022/03/14 12:28:47;;;;;;;18.45;7.57;;;9.60;99.90;;;;;;4837684;29;20434;-71
2022/03/14 12:31:15;;;;;;;20.85;8.13;;;9.50;99.90;;;;;;4839638;29;20122;-76
2022/03/14 12:33:43;;;;;;;19.02;8.80;;;9.50;99.90;;;;;;4841400;29;20558;-72
2022/03/14 12:36:24;;;;;;;22.00;8.38;;;9.50;99.90;;;;;;4824379;29;20050;-72
2022/03/14 12:39:12;;;;;;;18.88;8.07;;;9.40;99.90;;;;;;4840858;29;20416;-76
2022/03/14 12:41:39;;;;;;;19.10;7.57;;;9.50;99.90;;;;;;4839018;29;20716;-79
2022/03/14 12:44:18;;;;;;;18.83;8.27;;;9.40;99.90;;;;;;4841099;29;20061;-75
2022/03/14 12:46:46;;;;;;;21.25;8.20;;;9.40;99.90;;;;;;4839981;29;20524;-78